createdAt,value
2023-10-19T00:01:07.051Z,19.60
2023-10-19T00:03:36.868Z,20.17
2023-10-19T00:06:08.159Z,22.50
2023-10-19T00:08:47.244Z,22.13
2023-10-19T00:11:27.153Z,22.75
2023-10-19T00:13:57.192Z,20.20
2023-10-19T00:16:32.094Z,22.35
2023-10-19T00:19:03.327Z,21.17
2023-10-19T00:21:39.002Z,20.48
2023-10-19T00:24:09.014Z,20.27
2023-10-19T00:26:38.698Z,23.42
2023-10-19T00:29:28.363Z,25.67
2023-10-19T00:31:58.981Z,26.48
2023-10-19T00:34:31.670Z,23.77
2023-10-19T00:37:10.185Z,24.80
2023-10-19T00:40:00.244Z,23.30
2023-10-19T00:42:33.880Z,27.05
2023-10-19T00:47:48.863Z,23.35
2023-10-19T00:50:20.500Z,26.10
2023-10-19T00:52:52.584Z,25.15
2023-10-19T00:55:28.568Z,24.02
2023-10-19T00:57:59.766Z,25.63
2023-10-19T01:00:37.083Z,27.63
2023-10-19T01:03:08.320Z,23.50
2023-10-19T01:05:41.462Z,25.67
2023-10-19T01:08:27.613Z,25.08
2023-10-19T01:10:57.540Z,22.55
2023-10-19T01:13:30.011Z,26.02
2023-10-19T01:16:01.168Z,26.20
2023-10-19T01:18:32.153Z,23.48
2023-10-19T01:21:12.500Z,25.35
2023-10-19T01:23:42.420Z,25.80
2023-10-19T01:26:12.843Z,24.48
2023-10-19T01:28:46.520Z,22.65
2023-10-19T01:31:30.902Z,26.25
2023-10-19T01:34:08.667Z,25.98
2023-10-19T01:36:47.797Z,28.10
2023-10-19T01:39:17.488Z,27.52
2023-10-19T01:41:48.212Z,28.92
2023-10-19T01:44:18.264Z,29.25
2023-10-19T01:46:48.490Z,31.48
2023-10-19T01:49:28.595Z,31.80
2023-10-19T01:51:59.013Z,31.75
2023-10-19T01:54:28.907Z,31.40
2023-10-19T01:56:59.478Z,32.70
2023-10-19T01:59:32.554Z,31.50
2023-10-19T02:02:05.332Z,32.42
2023-10-19T02:04:38.040Z,31.42
2023-10-19T02:07:14.546Z,33.50
2023-10-19T02:09:44.201Z,33.10
2023-10-19T02:12:13.872Z,33.75
2023-10-19T02:14:43.513Z,32.15
2023-10-19T02:17:13.792Z,33.28
2023-10-19T02:19:43.464Z,31.90
2023-10-19T02:22:14.873Z,31.80
2023-10-19T02:24:44.949Z,32.35
2023-10-19T02:27:26.745Z,31.08
2023-10-19T02:30:00.267Z,29.38
2023-10-19T02:32:30.154Z,27.20
2023-10-19T02:35:00.047Z,26.15
2023-10-19T02:37:30.019Z,25.27
2023-10-19T02:40:00.259Z,24.92
2023-10-19T02:42:30.524Z,25.02
2023-10-19T02:45:02.179Z,23.83
2023-10-19T02:47:32.227Z,22.20
2023-10-19T02:50:02.198Z,21.95
2023-10-19T02:52:31.935Z,23.52
2023-10-19T02:55:02.808Z,22.23
2023-10-19T02:57:33.778Z,22.00
2023-10-19T03:00:05.615Z,21.95
2023-10-19T03:02:35.503Z,20.48
2023-10-19T03:05:12.040Z,23.45
2023-10-19T03:07:41.989Z,23.50
2023-10-19T03:10:25.503Z,23.17
2023-10-19T03:12:55.708Z,25.50
2023-10-19T03:15:26.251Z,24.52
2023-10-19T03:17:55.896Z,24.30
2023-10-19T03:20:28.236Z,24.65
2023-10-19T03:23:02.351Z,24.70
2023-10-19T03:25:50.029Z,23.88
2023-10-19T03:28:21.206Z,21.70
2023-10-19T03:30:50.896Z,23.88
2023-10-19T03:33:20.972Z,21.00
2023-10-19T03:35:50.917Z,23.63
2023-10-19T03:38:21.616Z,22.67
2023-10-19T03:40:55.208Z,23.27
2023-10-19T03:43:25.643Z,23.45
2023-10-19T03:45:55.745Z,22.60
2023-10-19T03:48:33.397Z,22.73
2023-10-19T03:51:05.231Z,19.60
2023-10-19T03:53:35.519Z,22.95
2023-10-19T03:56:13.516Z,22.45
2023-10-19T03:58:45.640Z,22.98
2023-10-19T04:01:19.183Z,22.65
2023-10-19T04:03:49.836Z,20.70
2023-10-19T04:06:19.440Z,19.83
2023-10-19T04:08:53.415Z,22.27
2023-10-19T04:11:25.658Z,22.83
2023-10-19T04:13:58.566Z,22.38
2023-10-19T04:16:28.280Z,21.88
2023-10-19T04:18:57.951Z,21.00
2023-10-19T04:21:27.629Z,21.10
2023-10-19T04:23:59.631Z,24.63
2023-10-19T04:26:29.477Z,20.92
2023-10-19T04:28:59.164Z,23.48
2023-10-19T04:31:29.159Z,23.30
2023-10-19T04:33:58.998Z,22.85
2023-10-19T04:36:30.140Z,24.48
2023-10-19T04:38:59.946Z,25.13
2023-10-19T04:41:32.552Z,25.75
2023-10-19T04:44:03.452Z,23.43
2023-10-19T04:46:33.365Z,25.73
2023-10-19T04:49:03.602Z,24.15
2023-10-19T04:51:33.632Z,25.23
2023-10-19T04:54:03.326Z,26.38
2023-10-19T04:56:33.105Z,24.75
2023-10-19T04:59:02.800Z,27.55
2023-10-19T05:01:32.655Z,28.58
2023-10-19T05:04:03.034Z,30.00
2023-10-19T05:06:32.703Z,31.40
2023-10-19T05:09:02.547Z,33.38
2023-10-19T05:11:32.304Z,29.25
2023-10-19T05:14:01.968Z,29.92
2023-10-19T05:16:31.798Z,30.70
2023-10-19T05:19:02.566Z,31.27
2023-10-19T05:21:33.065Z,33.28
2023-10-19T05:24:06.025Z,32.97
2023-10-19T05:26:37.299Z,35.00
2023-10-19T05:29:07.012Z,35.20
2023-10-19T05:31:38.023Z,36.30
2023-10-19T05:34:08.168Z,33.28
2023-10-19T05:36:38.361Z,29.45
2023-10-19T05:39:11.116Z,33.90
2023-10-19T05:41:41.852Z,32.75
2023-10-19T05:44:12.162Z,34.55
2023-10-19T05:46:43.673Z,35.58
2023-10-19T05:49:13.527Z,38.40
2023-10-19T05:51:44.620Z,36.05
2023-10-19T05:54:15.109Z,38.25
2023-10-19T05:56:45.147Z,39.53
2023-10-19T05:59:15.057Z,38.28
2023-10-19T06:01:45.074Z,37.90
2023-10-19T06:04:17.264Z,34.83
2023-10-19T06:06:51.813Z,40.22
2023-10-19T06:12:24.818Z,38.70
2023-10-19T06:14:54.629Z,38.22
2023-10-19T06:17:24.407Z,35.75
2023-10-19T06:19:54.152Z,34.25
2023-10-19T06:22:23.791Z,31.00
2023-10-19T06:24:54.476Z,32.72
2023-10-19T06:27:25.267Z,38.60
2023-10-19T06:29:55.714Z,35.63
2023-10-19T06:32:25.966Z,36.72
2023-10-19T06:34:55.925Z,37.50
2023-10-19T06:37:25.632Z,42.13
2023-10-19T06:39:55.648Z,43.22
2023-10-19T06:42:25.422Z,41.42
2023-10-19T06:44:58.393Z,39.95
2023-10-19T06:47:28.565Z,37.92
2023-10-19T06:49:58.745Z,39.40
2023-10-19T06:52:28.474Z,35.95
2023-10-19T06:54:58.926Z,37.45
2023-10-19T06:57:28.581Z,38.10
2023-10-19T06:59:58.249Z,38.33
2023-10-19T07:02:29.223Z,35.53
2023-10-19T07:04:58.938Z,39.47
2023-10-19T07:07:28.789Z,38.78
2023-10-19T07:09:58.480Z,42.25
2023-10-19T07:12:28.773Z,38.42
2023-10-19T07:15:03.539Z,38.28
2023-10-19T07:17:33.344Z,36.00
2023-10-19T07:20:02.974Z,37.10
2023-10-19T07:22:33.922Z,36.00
2023-10-19T07:25:04.856Z,38.65
2023-10-19T07:27:38.232Z,41.67
2023-10-19T07:30:11.983Z,40.58
2023-10-19T07:32:41.739Z,40.50
2023-10-19T07:35:11.696Z,38.72
2023-10-19T07:37:41.386Z,37.80
2023-10-19T07:40:16.552Z,35.08
2023-10-19T07:42:46.250Z,36.70
2023-10-19T07:45:16.461Z,38.75
2023-10-19T07:47:47.029Z,41.30
2023-10-19T07:50:19.753Z,37.33
2023-10-19T07:52:56.663Z,39.50
2023-10-19T07:55:26.576Z,39.97
2023-10-19T07:57:56.878Z,41.72
2023-10-19T08:00:27.000Z,46.47
2023-10-19T08:02:56.789Z,45.28
2023-10-19T08:05:26.601Z,51.08
2023-10-19T08:07:56.476Z,48.55
2023-10-19T08:10:26.226Z,49.75
2023-10-19T08:12:56.196Z,51.17
2023-10-19T08:15:25.837Z,50.15
2023-10-19T08:17:57.669Z,46.10
2023-10-19T08:20:30.284Z,47.58
2023-10-19T08:23:04.242Z,47.57
2023-10-19T08:25:48.720Z,48.25
2023-10-19T08:28:25.047Z,47.50
2023-10-19T08:31:04.367Z,46.70
2023-10-19T08:33:36.499Z,49.75
2023-10-19T08:36:06.831Z,45.00
2023-10-19T08:38:37.587Z,48.45
2023-10-19T08:41:07.397Z,52.08
2023-10-19T08:43:37.087Z,54.83
2023-10-19T08:46:06.849Z,46.42
2023-10-19T08:48:40.769Z,47.92
2023-10-19T08:51:13.576Z,52.50
2023-10-19T08:53:43.853Z,51.08
2023-10-19T08:56:14.971Z,47.80
2023-10-19T08:58:44.745Z,50.22
2023-10-19T09:01:15.260Z,47.63
2023-10-19T09:03:44.943Z,44.53
2023-10-19T09:06:17.384Z,51.03
2023-10-19T09:08:50.715Z,53.22
2023-10-19T09:11:23.200Z,57.40
2023-10-19T09:13:55.018Z,51.42
2023-10-19T09:16:26.125Z,54.40
2023-10-19T09:18:56.153Z,53.38
2023-10-19T09:21:28.700Z,57.30
2023-10-19T09:23:59.976Z,57.17
2023-10-19T09:26:29.692Z,57.70
2023-10-19T09:28:59.417Z,59.97
2023-10-19T09:31:29.929Z,58.30
2023-10-19T09:33:59.811Z,57.10
2023-10-19T09:36:32.422Z,54.13
2023-10-19T09:39:03.029Z,54.37
2023-10-19T09:41:35.512Z,57.90
2023-10-19T09:44:15.001Z,56.15
2023-10-19T09:46:45.403Z,56.88
2023-10-19T09:49:16.167Z,58.65
2023-10-19T09:51:55.544Z,59.33
2023-10-19T09:54:58.755Z,57.92
2023-10-19T09:58:01.333Z,61.08
2023-10-19T10:00:34.569Z,59.08
2023-10-19T10:03:08.178Z,60.30
2023-10-19T10:05:47.883Z,64.05
2023-10-19T10:08:23.991Z,65.43
2023-10-19T10:10:54.890Z,61.33
2023-10-19T10:13:30.641Z,61.83
2023-10-19T10:16:03.169Z,58.80
2023-10-19T10:18:40.562Z,63.15
2023-10-19T10:21:23.019Z,64.65
2023-10-19T10:23:55.692Z,59.92
2023-10-19T10:26:27.568Z,61.57
2023-10-19T10:29:25.270Z,62.60
2023-10-19T10:31:55.760Z,61.42
2023-10-19T10:34:40.634Z,64.47
2023-10-19T10:37:11.964Z,63.53
2023-10-19T10:39:47.296Z,61.72
2023-10-19T10:42:18.400Z,61.28
2023-10-19T10:44:54.896Z,63.25
2023-10-19T10:47:32.388Z,62.55
2023-10-19T10:50:03.763Z,63.80
2023-10-19T10:52:38.146Z,60.88
2023-10-19T10:55:15.282Z,61.40
2023-10-19T10:57:47.366Z,64.45
2023-10-19T11:00:18.253Z,60.60
2023-10-19T11:02:50.064Z,60.83
2023-10-19T11:05:21.194Z,59.83
2023-10-19T11:08:07.932Z,63.13
2023-10-19T11:10:38.750Z,68.88
2023-10-19T11:13:10.212Z,63.75
2023-10-19T11:15:42.288Z,59.45
2023-10-19T11:18:12.622Z,56.05
2023-10-19T11:20:43.212Z,58.10
2023-10-19T11:23:13.743Z,56.55
2023-10-19T11:25:43.767Z,54.95
2023-10-19T11:28:21.663Z,49.08
2023-10-19T11:30:51.668Z,51.35
2023-10-19T11:33:26.779Z,51.72
2023-10-19T11:35:56.481Z,51.33
2023-10-19T11:38:26.143Z,50.75
2023-10-19T11:40:55.867Z,51.13
2023-10-19T11:43:25.491Z,48.28
2023-10-19T11:45:55.657Z,44.88
2023-10-19T11:48:25.335Z,44.38
2023-10-19T11:50:56.094Z,41.40
2023-10-19T11:53:26.094Z,40.92
2023-10-19T11:55:55.809Z,38.95
2023-10-19T11:58:25.645Z,38.30
2023-10-19T12:00:57.514Z,38.28
2023-10-19T12:03:28.121Z,34.97
2023-10-19T12:05:58.805Z,35.75
2023-10-19T12:08:28.473Z,33.97
2023-10-19T12:10:58.160Z,35.25
2023-10-19T12:13:28.082Z,34.80
2023-10-19T12:15:57.975Z,35.08
2023-10-19T12:18:31.445Z,32.42
2023-10-19T12:23:33.614Z,31.67
2023-10-19T12:26:07.218Z,31.88
2023-10-19T12:28:36.891Z,30.83
2023-10-19T12:31:08.095Z,30.42
2023-10-19T12:33:39.026Z,26.70
2023-10-19T12:36:27.149Z,27.63
2023-10-19T12:39:00.202Z,25.90
2023-10-19T12:41:30.508Z,23.50
2023-10-19T12:44:00.423Z,25.17
2023-10-19T12:46:32.370Z,23.00
2023-10-19T12:49:02.097Z,25.08
2023-10-19T12:51:32.671Z,24.95
2023-10-19T12:54:06.090Z,22.67
2023-10-19T12:59:09.153Z,22.92
2023-10-19T13:01:39.280Z,22.73
2023-10-19T13:04:21.477Z,23.88
2023-10-19T13:06:51.571Z,25.77
2023-10-19T13:09:33.501Z,24.17
2023-10-19T13:12:03.745Z,25.20
2023-10-19T13:14:33.782Z,27.50
2023-10-19T13:17:03.622Z,28.58
2023-10-19T13:19:34.705Z,27.83
2023-10-19T13:22:07.993Z,27.55
2023-10-19T13:24:43.486Z,28.33
2023-10-19T13:27:13.233Z,30.40
2023-10-19T13:29:44.216Z,30.83
2023-10-19T13:32:14.067Z,30.98
2023-10-19T13:34:44.381Z,31.15
2023-10-19T13:37:14.011Z,30.92
2023-10-19T13:39:43.673Z,30.55
2023-10-19T13:42:13.355Z,30.17
2023-10-19T13:44:42.987Z,26.60
2023-10-19T13:47:14.486Z,25.73
2023-10-19T13:49:44.323Z,28.45
2023-10-19T13:52:14.052Z,30.35
2023-10-19T13:54:44.066Z,26.92
2023-10-19T13:57:13.790Z,24.30
2023-10-19T13:59:43.413Z,24.33
2023-10-19T14:02:13.479Z,21.13
2023-10-19T14:04:43.353Z,22.98
2023-10-19T14:07:13.542Z,23.67
2023-10-19T14:09:43.240Z,20.25
2023-10-19T14:12:12.898Z,17.63
2023-10-19T14:14:43.495Z,18.30
2023-10-19T14:17:13.103Z,15.32
2023-10-19T14:19:47.501Z,16.73
2023-10-19T14:22:18.659Z,16.13
2023-10-19T14:24:48.574Z,14.38
2023-10-19T14:27:18.206Z,13.10
2023-10-19T14:29:50.686Z,13.38
2023-10-19T14:32:20.401Z,9.70
2023-10-19T14:34:50.246Z,8.98
2023-10-19T14:37:20.326Z,11.80
2023-10-19T14:39:50.044Z,12.30
2023-10-19T14:42:19.689Z,10.40
2023-10-19T14:44:49.307Z,12.45
2023-10-19T14:47:19.018Z,11.63
2023-10-19T14:49:49.779Z,10.40
2023-10-19T14:52:19.579Z,9.65
2023-10-19T14:54:49.180Z,10.38
2023-10-19T14:57:19.190Z,9.95
2023-10-19T14:59:48.809Z,9.43
2023-10-19T15:02:20.288Z,9.50
2023-10-19T15:04:50.043Z,10.52
2023-10-19T15:07:20.663Z,8.80
2023-10-19T15:09:50.423Z,7.72
2023-10-19T15:12:20.065Z,8.07
2023-10-19T15:14:49.669Z,7.65
2023-10-19T15:17:19.820Z,7.13
2023-10-19T15:19:49.471Z,7.82
2023-10-19T15:22:19.192Z,7.13
2023-10-19T15:24:48.830Z,6.70
2023-10-19T15:27:18.430Z,7.70
2023-10-19T15:29:49.620Z,7.15
2023-10-19T15:32:19.387Z,7.47
2023-10-19T15:34:49.183Z,6.50
2023-10-19T15:37:19.390Z,6.55
2023-10-19T15:39:49.798Z,6.45
2023-10-19T15:42:20.737Z,7.57
2023-10-19T15:44:54.072Z,7.03
2023-10-19T15:47:24.395Z,6.55
2023-10-19T15:50:01.231Z,6.32
2023-10-19T15:52:37.796Z,5.90
2023-10-19T15:55:08.135Z,6.22
2023-10-19T15:57:37.810Z,6.43
2023-10-19T16:00:08.965Z,6.50
2023-10-19T16:02:39.135Z,6.13
2023-10-19T16:05:09.413Z,7.18
2023-10-19T16:07:39.596Z,6.28
2023-10-19T16:10:15.012Z,5.63
2023-10-19T16:12:45.978Z,6.50
2023-10-19T16:15:17.881Z,5.95
2023-10-19T16:17:48.493Z,6.13
2023-10-19T16:20:18.366Z,5.72
2023-10-19T16:22:48.062Z,5.72
2023-10-19T16:25:18.721Z,5.45
2023-10-19T16:27:49.333Z,5.53
2023-10-19T16:30:19.720Z,5.35
2023-10-19T16:32:49.406Z,6.00
2023-10-19T16:35:19.270Z,5.55
2023-10-19T16:37:50.691Z,5.32
2023-10-19T16:40:20.416Z,5.55
2023-10-19T16:42:50.174Z,5.05
2023-10-19T16:45:19.887Z,5.25
2023-10-19T16:47:49.618Z,4.75
2023-10-19T16:50:21.437Z,5.25
2023-10-19T16:52:51.654Z,5.07
2023-10-19T16:55:22.548Z,5.15
2023-10-19T16:57:52.224Z,5.47
2023-10-19T17:00:22.623Z,5.20
2023-10-19T17:02:52.328Z,4.75
2023-10-19T17:05:22.386Z,4.85
2023-10-19T17:07:52.051Z,5.03
2023-10-19T17:10:21.733Z,4.70
2023-10-19T17:12:51.727Z,4.80
2023-10-19T17:15:21.341Z,4.95
2023-10-19T17:17:51.053Z,4.57
2023-10-19T17:20:21.008Z,4.30
2023-10-19T17:22:50.803Z,4.65
2023-10-19T17:25:20.536Z,4.63
2023-10-19T17:27:50.757Z,5.20
2023-10-19T17:30:20.436Z,5.75
2023-10-19T17:32:52.514Z,4.00
2023-10-19T17:35:24.312Z,4.05
2023-10-19T17:37:54.181Z,4.32
2023-10-19T17:40:23.935Z,4.07
2023-10-19T17:42:53.682Z,4.10
2023-10-19T17:45:23.286Z,4.28
2023-10-19T17:47:53.933Z,4.43
2023-10-19T17:50:23.718Z,3.70
2023-10-19T17:52:53.746Z,4.22
2023-10-19T17:55:23.415Z,4.20
2023-10-19T17:57:53.202Z,3.53
2023-10-19T18:00:22.939Z,4.43
2023-10-19T18:02:54.268Z,3.78
2023-10-19T18:05:24.210Z,3.90
2023-10-19T18:07:55.658Z,3.60
2023-10-19T18:10:31.253Z,4.28
2023-10-19T18:13:01.034Z,3.60
2023-10-19T18:15:30.656Z,3.90
2023-10-19T18:18:00.396Z,4.13
2023-10-19T18:20:32.753Z,3.88
2023-10-19T18:23:02.571Z,3.65
2023-10-19T18:25:32.282Z,4.20
2023-10-19T18:28:01.877Z,3.80
2023-10-19T18:30:31.828Z,4.20
2023-10-19T18:33:01.487Z,3.90
2023-10-19T18:35:31.386Z,3.97
2023-10-19T18:38:01.267Z,4.32
2023-10-19T18:40:35.000Z,4.03
2023-10-19T18:43:05.818Z,3.63
2023-10-19T18:45:35.781Z,4.63
2023-10-19T18:48:07.446Z,3.78
2023-10-19T18:50:37.290Z,5.10
2023-10-19T18:53:07.130Z,4.07
2023-10-19T18:55:37.821Z,4.20
2023-10-19T18:58:08.814Z,3.67
2023-10-19T19:00:39.182Z,4.00
2023-10-19T19:03:09.577Z,4.30
2023-10-19T19:05:42.806Z,3.90
2023-10-19T19:08:12.731Z,3.67
2023-10-19T19:10:42.457Z,4.57
2023-10-19T19:13:12.976Z,4.22
2023-10-19T19:15:42.723Z,4.20
2023-10-19T19:18:12.809Z,4.05
2023-10-19T19:20:42.486Z,3.88
2023-10-19T19:23:13.832Z,3.50
2023-10-19T19:25:46.311Z,4.38
2023-10-19T19:28:15.994Z,3.58
2023-10-19T19:30:46.064Z,4.32
2023-10-19T19:33:19.497Z,3.90
2023-10-19T19:35:49.114Z,3.75
2023-10-19T19:38:18.755Z,4.30
2023-10-19T19:40:48.711Z,3.90
2023-10-19T19:43:18.589Z,4.45
2023-10-19T19:45:48.361Z,4.32
2023-10-19T19:48:23.937Z,4.70
2023-10-19T19:50:54.095Z,4.53
2023-10-19T19:53:24.033Z,4.88
2023-10-19T19:55:55.658Z,4.72
2023-10-19T19:58:25.325Z,4.82
2023-10-19T20:00:54.985Z,4.82
2023-10-19T20:03:25.019Z,4.82
2023-10-19T20:06:01.122Z,4.75
2023-10-19T20:08:33.526Z,5.90
2023-10-19T20:11:04.304Z,4.38
2023-10-19T20:13:34.063Z,5.72
2023-10-19T20:16:03.760Z,4.88
2023-10-19T20:18:33.573Z,5.25
2023-10-19T20:21:03.485Z,6.00
2023-10-19T20:23:33.125Z,5.95
2023-10-19T20:26:05.709Z,6.13
2023-10-19T20:28:36.040Z,6.33
2023-10-19T20:31:05.927Z,5.38
2023-10-19T20:33:36.019Z,5.95
2023-10-19T20:36:05.736Z,5.68
2023-10-19T20:38:35.344Z,5.82
2023-10-19T20:41:05.121Z,5.70
2023-10-19T20:43:34.903Z,6.28
2023-10-19T20:46:07.749Z,5.63
2023-10-19T20:48:37.523Z,5.82
2023-10-19T20:51:09.433Z,5.65
2023-10-19T20:53:39.445Z,5.47
2023-10-19T20:56:09.111Z,5.65
2023-10-19T20:58:39.304Z,5.72
2023-10-19T21:01:12.164Z,5.55
2023-10-19T21:03:43.793Z,5.38
2023-10-19T21:06:20.106Z,5.40
2023-10-19T21:08:49.768Z,5.28
2023-10-19T21:11:22.230Z,5.65
2023-10-19T21:13:52.196Z,5.13
2023-10-19T21:16:21.980Z,5.97
2023-10-19T21:18:51.657Z,5.03
2023-10-19T21:21:21.370Z,4.55
2023-10-19T21:23:51.051Z,4.38
2023-10-19T21:26:20.755Z,5.30
2023-10-19T21:28:50.422Z,4.93
2023-10-19T21:31:20.788Z,4.60
2023-10-19T21:33:51.233Z,4.43
2023-10-19T21:36:20.927Z,3.45
2023-10-19T21:38:50.611Z,4.00
2023-10-19T21:41:22.677Z,4.55
2023-10-19T21:43:52.413Z,3.63
2023-10-19T21:46:22.674Z,3.40
2023-10-19T21:48:52.350Z,4.15
2023-10-19T21:51:22.430Z,3.92
2023-10-19T21:53:53.302Z,3.80
2023-10-19T21:56:23.005Z,3.50
2023-10-19T21:58:52.773Z,3.90
2023-10-19T22:01:26.741Z,3.40
2023-10-19T22:03:56.432Z,3.95
2023-10-19T22:06:26.510Z,3.95
2023-10-19T22:08:56.162Z,4.13
2023-10-19T22:11:25.867Z,3.80
2023-10-19T22:13:55.595Z,3.45
2023-10-19T22:16:27.036Z,3.60
2023-10-19T22:18:56.919Z,3.28
2023-10-19T22:21:26.668Z,3.25
2023-10-19T22:23:56.367Z,3.67
2023-10-19T22:26:26.015Z,3.35
2023-10-19T22:28:55.993Z,3.50
2023-10-19T22:31:25.820Z,3.13
2023-10-19T22:33:55.595Z,2.78
2023-10-19T22:36:25.310Z,2.92
2023-10-19T22:38:56.982Z,3.38
2023-10-19T22:41:27.086Z,2.88
2023-10-19T22:43:57.259Z,2.75
2023-10-19T22:46:29.005Z,2.88
2023-10-19T22:48:58.720Z,2.47
2023-10-19T22:51:28.421Z,3.17
2023-10-19T22:53:58.342Z,3.22
2023-10-19T22:56:28.131Z,2.38
2023-10-19T22:58:57.879Z,2.80
2023-10-19T23:01:27.837Z,2.55
2023-10-19T23:03:59.594Z,2.17
2023-10-19T23:06:29.270Z,2.38
2023-10-19T23:09:00.743Z,2.75
2023-10-19T23:11:33.217Z,2.60
2023-10-19T23:14:05.850Z,2.65
2023-10-19T23:16:38.497Z,2.90
2023-10-19T23:19:13.674Z,2.53
2023-10-19T23:21:43.390Z,2.70
2023-10-19T23:24:19.173Z,3.25
2023-10-19T23:26:49.696Z,2.70
2023-10-19T23:29:20.416Z,3.20
2023-10-19T23:31:52.177Z,2.95
2023-10-19T23:34:21.880Z,3.13
2023-10-19T23:36:51.565Z,2.50
2023-10-19T23:39:30.387Z,2.53
2023-10-19T23:42:00.454Z,2.63
2023-10-19T23:44:32.977Z,2.55
2023-10-19T23:47:03.078Z,2.63
2023-10-19T23:49:35.583Z,2.72
2023-10-19T23:52:05.376Z,2.17
2023-10-19T23:54:35.054Z,2.95
2023-10-19T23:57:04.851Z,2.75
2023-10-19T23:59:34.914Z,2.72
